createdAt,value
2019-05-06T00:00:59.784Z,7.60
2019-05-06T00:05:06.733Z,7.60
2019-05-06T00:09:14.730Z,8.20
2019-05-06T00:13:20.972Z,7.47
2019-05-06T00:17:26.958Z,7.23
2019-05-06T00:21:35.292Z,7.27
2019-05-06T00:25:58.818Z,7.43
2019-05-06T00:30:07.175Z,7.30
2019-05-06T00:34:13.864Z,7.37
2019-05-06T00:38:19.987Z,8.30
2019-05-06T00:42:30.109Z,7.50
2019-05-06T00:46:36.069Z,8.27
2019-05-06T00:50:44.032Z,8.20
2019-05-06T00:54:49.650Z,9.30
2019-05-06T00:58:55.589Z,7.67
2019-05-06T01:03:04.313Z,8.70
2019-05-06T01:07:10.272Z,8.27
2019-05-06T01:11:16.305Z,8.37
2019-05-06T01:15:23.977Z,8.47
2019-05-06T01:19:29.925Z,8.57
2019-05-06T01:23:35.886Z,8.67
2019-05-06T01:27:41.878Z,8.93
2019-05-06T01:31:47.866Z,7.80
2019-05-06T01:35:54.249Z,7.80
2019-05-06T01:40:03.960Z,7.93
2019-05-06T01:44:09.524Z,7.70
2019-05-06T01:48:17.141Z,7.80
2019-05-06T01:52:24.033Z,8.03
2019-05-06T01:56:30.367Z,7.57
2019-05-06T02:00:39.341Z,8.40
2019-05-06T02:04:44.349Z,8.43
2019-05-06T02:08:50.510Z,8.80
2019-05-06T02:12:56.638Z,9.90
2019-05-06T02:17:03.603Z,9.97
2019-05-06T02:21:29.915Z,9.07
2019-05-06T02:25:40.233Z,8.57
2019-05-06T02:30:00.310Z,7.17
2019-05-06T02:34:16.863Z,8.53
2019-05-06T02:38:28.098Z,7.87
2019-05-06T02:42:33.818Z,8.83
2019-05-06T02:46:44.064Z,8.03
2019-05-06T02:50:53.491Z,7.87
2019-05-06T02:54:58.274Z,8.70
2019-05-06T02:59:04.347Z,8.57
2019-05-06T03:03:13.647Z,8.10
2019-05-06T03:07:17.977Z,7.70
2019-05-06T03:11:24.286Z,7.00
2019-05-06T03:15:30.251Z,7.23
2019-05-06T03:19:37.858Z,6.50
2019-05-06T03:23:45.461Z,6.60
2019-05-06T03:27:53.268Z,6.60
2019-05-06T03:31:59.005Z,6.43
2019-05-06T03:36:14.956Z,7.27
2019-05-06T03:40:13.826Z,6.87
2019-05-06T03:44:23.613Z,6.90
2019-05-06T03:48:33.083Z,7.00
2019-05-06T03:52:37.741Z,7.43
2019-05-06T03:56:44.843Z,7.43
2019-05-06T04:00:53.141Z,7.13
2019-05-06T04:05:03.589Z,7.27
2019-05-06T04:09:08.042Z,6.53
2019-05-06T04:13:13.999Z,7.77
2019-05-06T04:17:23.836Z,7.33
2019-05-06T04:21:34.073Z,6.90
2019-05-06T04:25:43.420Z,8.73
2019-05-06T04:29:50.019Z,7.27
2019-05-06T04:34:10.228Z,6.97
2019-05-06T04:38:04.209Z,8.50
2019-05-06T04:42:13.753Z,8.27
2019-05-06T04:46:23.678Z,7.70
2019-05-06T04:50:28.551Z,7.90
2019-05-06T04:54:34.527Z,7.13
2019-05-06T04:58:42.748Z,7.43
2019-05-06T05:02:48.135Z,8.00
2019-05-06T05:06:54.278Z,8.57
2019-05-06T05:11:04.727Z,8.17
2019-05-06T05:15:24.310Z,8.20
2019-05-06T05:19:32.790Z,8.57
2019-05-06T05:23:39.607Z,8.77
2019-05-06T05:27:45.853Z,9.33
2019-05-06T05:31:52.985Z,8.37
2019-05-06T05:35:59.458Z,6.73
2019-05-06T05:40:06.246Z,6.60
2019-05-06T05:44:23.093Z,6.43
2019-05-06T05:48:36.908Z,6.10
2019-05-06T05:52:43.319Z,5.80
2019-05-06T05:56:52.726Z,6.10
2019-05-06T06:00:58.170Z,6.43
2019-05-06T06:05:06.059Z,6.10
2019-05-06T06:09:12.765Z,5.53
2019-05-06T06:13:19.151Z,6.20
2019-05-06T06:17:32.656Z,5.70
2019-05-06T06:21:42.649Z,6.53
2019-05-06T06:25:48.417Z,6.37
2019-05-06T06:29:54.710Z,5.67
2019-05-06T06:34:05.313Z,5.50
2019-05-06T06:38:13.209Z,5.33
2019-05-06T06:42:19.462Z,5.00
2019-05-06T06:46:25.713Z,5.23
2019-05-06T06:50:32.964Z,5.63
2019-05-06T06:54:39.262Z,4.43
2019-05-06T06:59:06.109Z,4.80
2019-05-06T07:03:16.737Z,5.00
2019-05-06T07:07:39.990Z,5.40
2019-05-06T07:11:33.139Z,4.43
2019-05-06T07:15:42.491Z,4.60
2019-05-06T07:19:55.508Z,4.97
2019-05-06T07:24:02.163Z,4.53
2019-05-06T07:28:08.538Z,4.90
2019-05-06T07:32:14.803Z,5.60
2019-05-06T07:36:22.827Z,5.57
2019-05-06T07:40:28.990Z,4.30
2019-05-06T07:44:39.578Z,5.20
2019-05-06T07:48:45.838Z,4.90
2019-05-06T07:53:07.406Z,4.43
2019-05-06T07:57:13.670Z,4.60
2019-05-06T08:01:23.563Z,4.03
2019-05-06T08:05:27.886Z,4.07
2019-05-06T08:09:34.143Z,4.07
2019-05-06T08:13:40.405Z,5.07
2019-05-06T08:17:46.766Z,4.00
2019-05-06T08:21:54.642Z,3.60
2019-05-06T08:26:10.049Z,3.50
2019-05-06T08:30:09.315Z,4.13
2019-05-06T08:34:16.913Z,4.27
2019-05-06T08:38:23.350Z,4.13
2019-05-06T08:42:29.710Z,3.87
2019-05-06T08:46:36.018Z,4.10
2019-05-06T08:50:50.078Z,4.07
2019-05-06T08:54:58.030Z,4.70
2019-05-06T08:59:04.459Z,4.30
2019-05-06T09:03:10.762Z,4.83
2019-05-06T09:07:17.013Z,4.60
2019-05-06T09:11:25.732Z,4.00
2019-05-06T09:15:32.749Z,4.23
2019-05-06T09:19:39.123Z,4.30
2019-05-06T09:23:45.365Z,4.57
2019-05-06T09:28:02.715Z,4.17
2019-05-06T09:32:14.056Z,4.40
2019-05-06T09:36:22.745Z,4.37
2019-05-06T09:40:28.351Z,4.30
2019-05-06T09:44:34.902Z,4.43
2019-05-06T09:48:42.790Z,4.47
2019-05-06T09:52:49.052Z,4.33
2019-05-06T09:56:57.085Z,5.37
2019-05-06T10:01:04.358Z,5.87
2019-05-06T10:05:12.031Z,4.30
2019-05-06T10:09:18.486Z,4.97
2019-05-06T10:13:24.918Z,5.00
2019-05-06T10:17:31.250Z,4.20
2019-05-06T10:21:37.505Z,4.53
2019-05-06T10:25:44.362Z,4.33
2019-05-06T10:30:03.335Z,4.67
2019-05-06T10:34:13.832Z,4.23
2019-05-06T10:38:37.806Z,3.67
2019-05-06T10:42:47.174Z,4.53
2019-05-06T10:46:53.499Z,4.23
2019-05-06T10:51:03.418Z,3.77
2019-05-06T10:55:09.214Z,4.17
2019-05-06T10:59:21.920Z,3.80
2019-05-06T11:03:27.870Z,3.20
2019-05-06T11:07:35.390Z,2.80
2019-05-06T11:11:42.772Z,3.17
2019-05-06T11:15:49.485Z,3.40
2019-05-06T11:19:56.954Z,2.73
2019-05-06T11:24:06.170Z,2.57
2019-05-06T11:28:29.341Z,3.00
2019-05-06T11:32:37.236Z,3.10
2019-05-06T11:36:46.165Z,3.30
2019-05-06T11:40:53.126Z,2.47
2019-05-06T11:44:59.634Z,3.10
2019-05-06T11:49:05.882Z,3.03
2019-05-06T11:53:12.545Z,3.30
2019-05-06T11:57:18.910Z,2.70
2019-05-06T12:01:32.842Z,3.07
2019-05-06T12:05:41.855Z,3.10
2019-05-06T12:09:48.144Z,3.00
2019-05-06T12:13:54.478Z,2.23
2019-05-06T12:18:03.175Z,3.30
2019-05-06T12:22:08.602Z,2.60
2019-05-06T12:26:14.808Z,3.27
2019-05-06T12:30:23.727Z,2.80
2019-05-06T12:34:32.090Z,2.50
2019-05-06T12:38:39.562Z,2.40
2019-05-06T12:42:53.236Z,2.30
2019-05-06T12:47:04.007Z,2.87
2019-05-06T12:51:10.332Z,2.80
2019-05-06T12:55:21.710Z,3.08
2019-05-06T12:59:26.202Z,2.93
2019-05-06T13:03:34.711Z,3.43
2019-05-06T13:07:47.170Z,3.03
2019-05-06T13:11:53.389Z,2.40
2019-05-06T13:15:59.637Z,3.27
2019-05-06T13:20:07.112Z,2.80
2019-05-06T13:24:13.378Z,2.80
2019-05-06T13:28:22.433Z,3.00
2019-05-06T13:32:31.881Z,2.60
2019-05-06T13:36:38.282Z,2.57
2019-05-06T13:40:53.801Z,3.30
2019-05-06T13:44:55.983Z,3.38
2019-05-06T13:49:05.686Z,2.70
2019-05-06T13:53:14.661Z,2.73
2019-05-06T13:57:20.393Z,2.77
2019-05-06T14:01:44.121Z,2.90
2019-05-06T14:05:52.059Z,3.50
2019-05-06T14:09:58.438Z,2.70
2019-05-06T14:14:04.821Z,2.60
2019-05-06T14:18:13.106Z,2.70
2019-05-06T14:22:18.931Z,2.57
2019-05-06T14:26:27.290Z,2.80
2019-05-06T14:30:42.895Z,2.90
2019-05-06T14:34:49.037Z,2.90
2019-05-06T14:38:55.342Z,3.03
2019-05-06T14:43:02.268Z,3.10
2019-05-06T14:47:20.368Z,2.80
2019-05-06T14:51:27.689Z,2.70
2019-05-06T14:55:35.662Z,3.10
2019-05-06T14:59:42.598Z,3.23
2019-05-06T15:03:48.867Z,2.90
2019-05-06T15:07:55.132Z,3.73
2019-05-06T15:12:02.359Z,3.40
2019-05-06T15:16:08.987Z,3.63
2019-05-06T15:20:15.287Z,5.40
2019-05-06T15:24:24.283Z,3.80
2019-05-06T15:28:29.432Z,3.77
2019-05-06T15:32:37.550Z,2.50
2019-05-06T15:36:45.439Z,3.50
2019-05-06T15:40:52.609Z,3.20
2019-05-06T15:44:59.869Z,3.70
2019-05-06T15:49:06.130Z,4.03
2019-05-06T15:53:13.053Z,3.50
2019-05-06T15:57:19.316Z,3.63
2019-05-06T16:01:25.578Z,3.50
2019-05-06T16:05:34.375Z,3.07
2019-05-06T16:09:42.901Z,7.23
2019-05-06T16:13:48.747Z,3.80
2019-05-06T16:17:55.315Z,3.73
2019-05-06T16:22:04.165Z,3.67
2019-05-06T16:26:12.356Z,3.87
2019-05-06T16:30:19.066Z,4.07
2019-05-06T16:34:25.421Z,4.43
2019-05-06T16:38:32.684Z,4.03
2019-05-06T16:42:39.046Z,3.53
2019-05-06T16:46:45.274Z,4.03
2019-05-06T16:50:51.772Z,3.87
2019-05-06T16:54:58.356Z,3.50
2019-05-06T16:59:05.893Z,4.03
2019-05-06T17:03:14.590Z,4.00
2019-05-06T17:07:22.227Z,3.90
2019-05-06T17:11:33.398Z,4.50
2019-05-06T17:15:36.682Z,4.30
2019-05-06T17:19:43.033Z,4.50
2019-05-06T17:23:49.310Z,4.13
2019-05-06T17:27:59.218Z,4.67
2019-05-06T17:32:23.991Z,5.17
2019-05-06T17:36:32.545Z,5.23
2019-05-06T17:40:39.234Z,4.03
2019-05-06T17:44:45.490Z,3.93
2019-05-06T17:49:05.345Z,4.23
2019-05-06T17:53:12.289Z,4.50
2019-05-06T17:57:18.727Z,4.70
2019-05-06T18:01:33.365Z,4.73
2019-05-06T18:05:42.142Z,4.63
2019-05-06T18:09:51.947Z,4.80
2019-05-06T18:13:57.804Z,5.00
2019-05-06T18:18:04.437Z,4.40
2019-05-06T18:22:24.826Z,4.20
2019-05-06T18:26:33.313Z,3.93
2019-05-06T18:30:39.705Z,3.63
2019-05-06T18:34:46.432Z,3.97
2019-05-06T18:38:53.462Z,3.73
2019-05-06T18:43:01.441Z,3.93
2019-05-06T18:47:12.080Z,3.57
2019-05-06T18:51:35.838Z,3.60
2019-05-06T18:55:42.323Z,4.10
2019-05-06T18:59:49.209Z,3.70
2019-05-06T19:04:03.428Z,3.70
2019-05-06T19:08:27.794Z,4.10
2019-05-06T19:12:40.460Z,4.43
2019-05-06T19:16:49.684Z,4.00
2019-05-06T19:20:50.494Z,4.80
2019-05-06T19:24:56.738Z,4.10
2019-05-06T19:29:04.592Z,4.50
2019-05-06T19:33:12.349Z,4.23
2019-05-06T19:37:20.449Z,5.00
2019-05-06T19:41:26.669Z,4.53
2019-05-06T19:45:34.605Z,4.73
2019-05-06T19:49:42.389Z,4.30
2019-05-06T19:53:48.658Z,4.40
2019-05-06T19:57:54.907Z,4.83
2019-05-06T20:02:00.885Z,4.63
2019-05-06T20:06:14.654Z,4.80
2019-05-06T20:10:32.734Z,5.00
2019-05-06T20:14:39.185Z,4.90
2019-05-06T20:18:45.145Z,4.73
2019-05-06T20:22:52.857Z,4.30
2019-05-06T20:27:02.140Z,5.00
2019-05-06T20:31:07.965Z,5.33
2019-05-06T20:35:14.623Z,4.60
2019-05-06T20:39:22.826Z,5.60
2019-05-06T20:43:28.534Z,5.43
2019-05-06T20:47:34.580Z,4.87
2019-05-06T20:51:42.539Z,5.33
2019-05-06T20:55:48.694Z,5.90
2019-05-06T20:59:54.642Z,5.50
2019-05-06T21:04:02.237Z,5.23
2019-05-06T21:08:08.302Z,6.13
2019-05-06T21:12:14.273Z,5.80
2019-05-06T21:16:22.372Z,5.60
2019-05-06T21:20:27.814Z,5.30
2019-05-06T21:24:36.097Z,6.10
2019-05-06T21:28:42.896Z,5.60
2019-05-06T21:32:48.962Z,5.83
2019-05-06T21:36:55.597Z,6.07
2019-05-06T21:41:02.016Z,6.13
2019-05-06T21:45:08.346Z,5.80
2019-05-06T21:49:14.313Z,5.87
2019-05-06T21:53:20.277Z,5.47
2019-05-06T21:57:26.303Z,6.00
2019-05-06T22:01:33.090Z,6.60
2019-05-06T22:05:39.138Z,5.93
2019-05-06T22:09:45.130Z,7.47
2019-05-06T22:14:01.133Z,6.80
2019-05-06T22:17:59.756Z,6.90
2019-05-06T22:22:07.728Z,7.07
2019-05-06T22:26:16.163Z,7.73
2019-05-06T22:30:23.650Z,7.83
2019-05-06T22:34:28.946Z,7.60
2019-05-06T22:38:34.944Z,9.13
2019-05-06T22:42:42.907Z,8.07
2019-05-06T22:46:48.591Z,8.10
2019-05-06T22:50:57.302Z,8.73
2019-05-06T22:55:04.027Z,8.43
2019-05-06T22:59:10.181Z,8.47
2019-05-06T23:03:17.781Z,8.83
2019-05-06T23:07:23.923Z,9.07
2019-05-06T23:11:29.869Z,8.00
2019-05-06T23:15:35.862Z,9.10
2019-05-06T23:19:42.785Z,8.50
2019-05-06T23:23:50.080Z,8.70
2019-05-06T23:27:56.037Z,8.87
2019-05-06T23:32:02.973Z,8.53
2019-05-06T23:36:08.957Z,8.43
2019-05-06T23:40:52.147Z,7.77
2019-05-06T23:45:34.845Z,8.53
2019-05-06T23:50:17.177Z,8.00
2019-05-06T23:54:59.985Z,8.20
2019-05-06T23:59:05.910Z,8.80
